Terminal Aerodrome Forecast
Issued by NWS

Home | Current Version | Previous Version | Text Only | Print | Product List | Glossary On
Versions: 1 2 3 4 5 6 7 8 9 10 11 12 13 14 15 16 17 18 19 20 21
000
FTAK31 PAFA 300528
TAFAOR
TAF
PAOR 300528Z 3006/0106 VRB05G14KT P6SM SKC
     FM301500 29005KT 6SM -RA BR BKN035 OVC070
     FM010000 29010KT P6SM BKN050 BKN100=

USA.gov is the U.S. government's official web portal to all federal, state and local government web resources and services.